Rockerville, South Dakota
Current Conditions -  °F | °C
As of 9:52 AM on Sunday 23 Nov 2014 (Local Time) from KRAP Reporting Station
Clear Clear  
Wind Chill: 30°   Ceiling: Unl
Heat Index: 42°   Visibility: 10mi
Dew Point: 19°   Wind: 37mph
Humidity: 40%   Direction: 320°NW
Pressure: 29.69"   Gusts: 46mph
Location:  44.0731°N, 103.205°W
Report Text: KRAP 231652Z AUTO 32032G40KT 10SM CLR 06/M07 A2969 RMK AO2 PK WND 32042/1556 SLP068 T00561072 PNO $
Loading
Personal Weather Stations






























Interactive Weather Map New forecast layout! Learn more

10-Day Weather Forecast

Advertisements
Track Severe Weather on mobile